Back to Top

Language: 

My Weather Underground Personal Weather Station Historical Data with Graphs...

Delerius Weather Station Historical Data
Daily Summary for January 15, 2018 Units:  English    Metric   Both
« Previous Day
Next Day »
Daily Weekly Monthly Yearly Custom
  High: Low: Average:
Temperature: 49.8 °F 37.9 °F 43.6 °F
Dew Point: 47.1 °F 35.8 °F 41 °F
Humidity: 94 % 83 % 90 %
Wind Speed: 20.0 mph 2.0 mph 12.2 mph
Wind Gust: 32.0 mph - -
Wind:- - WSW
Pressure: 29.67 in 29.17 in -
Precipitation: 0.16 in    
Historical Graphs
 
 
Tabular Data for January 15, 2018
Time Temperature Dew Point Pressure Wind Wind Speed Wind Gust Humidity Rainfall Rate (Hourly) solar Conditions
00:03 39.4 °F 37.5 °F 29.67 in SSW 10.0 mph 14.0 mph 93 % 0.02 in 0 W/m2
00:10 40.1 °F 38.2 °F 29.67 in SSW 10.0 mph 21.0 mph 93 % 0.02 in 0 W/m2
00:16 40.6 °F 38.8 °F 29.66 in SSW 13.0 mph 20.0 mph 93 % 0.02 in 0 W/m2
00:22 41.0 °F 39.1 °F 29.66 in SSW 12.0 mph 20.0 mph 93 % 0.02 in 0 W/m2
00:27 41.4 °F 39.5 °F 29.65 in SSW 14.0 mph 24.0 mph 93 % 0.02 in 0 W/m2
00:50 42.1 °F 39.6 °F 29.61 in SSW 17.0 mph 32.0 mph 91 % 0.02 in 0 W/m2
00:58 42.1 °F 39.6 °F 29.60 in SSW 18.0 mph 25.0 mph 91 % 0.02 in 0 W/m2
01:12 42.1 °F 39.6 °F 29.58 in SSW 18.0 mph 31.0 mph 91 % 0.02 in 0 W/m2
01:20 42.1 °F 39.6 °F 29.58 in SW 16.0 mph 25.0 mph 91 % 0.01 in 0 W/m2
01:33 41.9 °F 39.7 °F 29.57 in SSW 17.0 mph 29.0 mph 92 % 0.00 in 0 W/m2
01:38 41.9 °F 39.7 °F 29.57 in SSW 16.0 mph 23.0 mph 92 % 0.00 in 0 W/m2
01:43 41.7 °F 39.6 °F 29.56 in SSW 15.0 mph 26.0 mph 92 % 0.00 in 0 W/m2
01:49 41.7 °F 39.6 °F 29.56 in SW 16.0 mph 24.0 mph 92 % 0.00 in 0 W/m2
01:57 41.7 °F 39.6 °F 29.55 in SSW 16.0 mph 26.0 mph 92 % 0.00 in 0 W/m2
02:04 41.7 °F 39.6 °F 29.54 in SW 14.0 mph 23.0 mph 92 % 0.00 in 0 W/m2
02:11 41.7 °F 39.8 °F 29.53 in SW 18.0 mph 24.0 mph 93 % 0.00 in 0 W/m2
02:32 41.9 °F 40.0 °F 29.51 in SW 17.0 mph 25.0 mph 93 % 0.01 in 0 W/m2
02:38 42.1 °F 40.2 °F 29.51 in SSW 14.0 mph 25.0 mph 93 % 0.01 in 0 W/m2
02:49 42.1 °F 40.2 °F 29.50 in SSW 15.0 mph 24.0 mph 93 % 0.01 in 0 W/m2
02:58 42.3 °F 40.4 °F 29.49 in SSW 17.0 mph 24.0 mph 93 % 0.01 in 0 W/m2
03:08 42.3 °F 40.4 °F 29.49 in SSW 13.0 mph 22.0 mph 93 % 0.01 in 0 W/m2
03:16 42.4 °F 40.6 °F 29.48 in SSW 15.0 mph 25.0 mph 93 % 0.01 in 0 W/m2
03:21 42.4 °F 40.6 °F 29.48 in SSW 15.0 mph 23.0 mph 93 % 0.00 in 0 W/m2
03:26 42.4 °F 40.6 °F 29.47 in SSW 15.0 mph 28.0 mph 93 % 0.00 in 0 W/m2
03:32 42.6 °F 40.7 °F 29.47 in SW 15.0 mph 23.0 mph 93 % 0.00 in 0 W/m2
03:47 42.8 °F 40.9 °F 29.45 in SSW 20.0 mph 28.0 mph 93 % 0.01 in 0 W/m2
03:56 43.0 °F 41.1 °F 29.44 in SSW 17.0 mph 25.0 mph 93 % 0.01 in 0 W/m2
04:16 43.2 °F 41.3 °F 29.42 in SSW 14.0 mph 24.0 mph 93 % 0.01 in 0 W/m2
04:23 43.2 °F 41.3 °F 29.42 in SSW 12.0 mph 22.0 mph 93 % 0.02 in 0 W/m2
04:28 43.2 °F 41.3 °F 29.41 in SSW 12.0 mph 22.0 mph 93 % 0.02 in 0 W/m2
04:44 43.5 °F 41.6 °F 29.40 in SSW 14.0 mph 26.0 mph 93 % 0.01 in 0 W/m2
04:52 43.7 °F 41.8 °F 29.40 in SW 19.0 mph 25.0 mph 93 % 0.01 in 0 W/m2
04:57 43.9 °F 42.0 °F 29.39 in SSW 15.0 mph 23.0 mph 93 % 0.01 in 0 W/m2
05:07 43.9 °F 42.0 °F 29.38 in SW 16.0 mph 22.0 mph 93 % 0.01 in 0 W/m2
05:13 43.9 °F 42.0 °F 29.38 in SW 13.0 mph 20.0 mph 93 % 0.01 in 0 W/m2
05:23 44.1 °F 42.2 °F 29.37 in SSW 13.0 mph 21.0 mph 93 % 0.00 in 0 W/m2
05:47 44.2 °F 42.6 °F 29.36 in SSW 12.0 mph 16.0 mph 94 % 0.00 in 0 W/m2
05:57 44.6 °F 43.0 °F 29.35 in SSW 12.0 mph 21.0 mph 94 % 0.00 in 0 W/m2
06:02 44.6 °F 43.0 °F 29.35 in SSW 13.0 mph 24.0 mph 94 % 0.00 in 0 W/m2
06:14 44.8 °F 43.2 °F 29.34 in SSW 14.0 mph 23.0 mph 94 % 0.00 in 0 W/m2
06:29 45.0 °F 43.3 °F 29.33 in SW 14.0 mph 22.0 mph 94 % 0.00 in 0 W/m2
06:39 45.0 °F 43.3 °F 29.32 in SW 13.0 mph 21.0 mph 94 % 0.00 in 0 W/m2
06:44 45.0 °F 43.3 °F 29.32 in SW 11.0 mph 18.0 mph 94 % 0.00 in 0 W/m2
06:50 45.0 °F 43.3 °F 29.31 in SW 13.0 mph 20.0 mph 94 % 0.00 in 0 W/m2
06:57 45.0 °F 43.3 °F 29.31 in SW 12.0 mph 16.0 mph 94 % 0.00 in 0 W/m2
07:07 45.1 °F 43.2 °F 29.30 in SW 12.0 mph 20.0 mph 93 % 0.00 in 0 W/m2
07:20 45.3 °F 43.4 °F 29.29 in SW 12.0 mph 16.0 mph 93 % 0.00 in 0 W/m2
07:27 45.5 °F 43.6 °F 29.29 in SW 12.0 mph 19.0 mph 93 % 0.00 in 0 W/m2
07:39 45.9 °F 44.2 °F 29.28 in SW 10.0 mph 15.0 mph 94 % 0.00 in 0 W/m2
07:46 46.0 °F 44.4 °F 29.28 in SSW 6.0 mph 13.0 mph 94 % 0.00 in 0 W/m2
07:53 46.0 °F 44.4 °F 29.27 in SSW 6.0 mph 12.0 mph 94 % 0.00 in 0 W/m2
08:13 46.2 °F 44.6 °F 29.28 in SW 6.0 mph 11.0 mph 94 % 0.00 in 5 W/m2
08:20 46.6 °F 44.9 °F 29.27 in SSW 2.0 mph 8.0 mph 94 % 0.00 in 5 W/m2
08:38 46.8 °F 45.1 °F 29.27 in SW 6.0 mph 11.0 mph 94 % 0.00 in 25 W/m2
08:58 47.8 °F 45.9 °F 29.27 in SW 9.0 mph 13.0 mph 93 % 0.00 in 19 W/m2
09:06 47.8 °F 45.9 °F 29.27 in SW 8.0 mph 14.0 mph 93 % 0.01 in 25 W/m2
09:12 47.8 °F 45.9 °F 29.26 in SW 6.0 mph 10.0 mph 93 % 0.01 in 16 W/m2
09:17 47.8 °F 45.9 °F 29.26 in SW 9.0 mph 13.0 mph 93 % 0.01 in 37 W/m2
09:28 48.2 °F 46.6 °F 29.26 in SW 9.0 mph 13.0 mph 94 % 0.02 in 93 W/m2
09:35 48.6 °F 46.9 °F 29.25 in SW 10.0 mph 13.0 mph 94 % 0.02 in 86 W/m2
09:48 48.7 °F 46.8 °F 29.24 in WSW 10.0 mph 14.0 mph 93 % 0.02 in 46 W/m2
09:54 48.9 °F 46.7 °F 29.24 in WSW 9.0 mph 12.0 mph 92 % 0.02 in 51 W/m2
10:07 49.5 °F 46.9 °F 29.23 in WSW 11.0 mph 20.0 mph 91 % 0.01 in 171 W/m2
10:12 49.6 °F 47.1 °F 29.23 in West 7.0 mph 14.0 mph 91 % 0.01 in 257 W/m2
10:26 49.8 °F 47.0 °F 29.22 in WSW 8.0 mph 12.0 mph 90 % 0.00 in 70 W/m2
10:33 49.6 °F 46.5 °F 29.22 in West 11.0 mph 15.0 mph 89 % 0.00 in 69 W/m2
10:38 49.6 °F 46.2 °F 29.21 in West 15.0 mph 25.0 mph 88 % 0.00 in 69 W/m2
10:48 49.8 °F 46.7 °F 29.21 in West 10.0 mph 18.0 mph 89 % 0.00 in 192 W/m2
11:08 49.6 °F 46.5 °F 29.20 in West 9.0 mph 15.0 mph 89 % 0.00 in 47 W/m2
11:17 49.3 °F 46.5 °F 29.21 in WNW 10.0 mph 15.0 mph 90 % 0.01 in 30 W/m2
11:24 48.6 °F 46.1 °F 29.21 in West 12.0 mph 21.0 mph 91 % 0.02 in 28 W/m2
11:29 47.8 °F 45.3 °F 29.21 in WNW 12.0 mph 20.0 mph 91 % 0.02 in 47 W/m2
11:40 47.1 °F 44.6 °F 29.20 in West 9.0 mph 14.0 mph 91 % 0.03 in 72 W/m2
12:06 46.9 °F 44.7 °F 29.18 in West 7.0 mph 13.0 mph 92 % 0.04 in 142 W/m2
12:12 47.1 °F 44.9 °F 29.18 in WNW 5.0 mph 11.0 mph 92 % 0.04 in 137 W/m2
12:20 47.7 °F 45.7 °F 29.18 in WNW 8.0 mph 13.0 mph 93 % 0.02 in 88 W/m2
12:27 47.7 °F 45.5 °F 29.18 in WNW 9.0 mph 18.0 mph 92 % 0.02 in 76 W/m2
12:36 47.7 °F 45.5 °F 29.18 in WNW 12.0 mph 23.0 mph 92 % 0.01 in 139 W/m2
12:43 47.7 °F 45.5 °F 29.18 in WNW 9.0 mph 15.0 mph 92 % 0.01 in 76 W/m2
12:48 47.7 °F 45.2 °F 29.18 in WNW 10.0 mph 13.0 mph 91 % 0.01 in 56 W/m2
12:54 47.5 °F 45.0 °F 29.18 in WNW 8.0 mph 14.0 mph 91 % 0.00 in 51 W/m2
13:10 47.5 °F 44.7 °F 29.17 in WNW 13.0 mph 22.0 mph 90 % 0.00 in 304 W/m2
13:15 47.5 °F 44.4 °F 29.17 in WNW 14.0 mph 23.0 mph 89 % 0.00 in 60 W/m2
13:20 47.3 °F 43.9 °F 29.18 in WNW 15.0 mph 25.0 mph 88 % 0.00 in 56 W/m2
13:27 46.9 °F 43.3 °F 29.18 in WNW 14.0 mph 21.0 mph 87 % 0.00 in 83 W/m2
13:34 46.6 °F 42.6 °F 29.18 in WNW 18.0 mph 28.0 mph 86 % 0.00 in 72 W/m2
13:39 46.8 °F 42.8 °F 29.18 in WNW 15.0 mph 22.0 mph 86 % 0.00 in 244 W/m2
13:49 46.9 °F 43.0 °F 29.18 in WNW 15.0 mph 28.0 mph 86 % 0.00 in 237 W/m2
14:02 46.2 °F 42.3 °F 29.18 in WNW 15.0 mph 24.0 mph 86 % 0.00 in 39 W/m2
14:07 46.0 °F 42.1 °F 29.18 in WNW 15.0 mph 21.0 mph 86 % 0.00 in 46 W/m2
14:13 45.9 °F 42.2 °F 29.19 in WNW 15.0 mph 23.0 mph 87 % 0.00 in 62 W/m2
14:21 45.7 °F 42.0 °F 29.18 in WNW 14.0 mph 23.0 mph 87 % 0.00 in 33 W/m2
14:51 45.7 °F 41.4 °F 29.19 in WNW 13.0 mph 23.0 mph 85 % 0.00 in 83 W/m2
14:57 45.5 °F 41.3 °F 29.19 in WNW 13.0 mph 20.0 mph 85 % 0.00 in 46 W/m2
15:25 44.6 °F 39.8 °F 29.19 in West 11.0 mph 21.0 mph 83 % 0.00 in 16 W/m2
15:47 43.5 °F 39.3 °F 29.19 in WNW 14.0 mph 24.0 mph 85 % 0.00 in 12 W/m2
16:02 43.3 °F 39.4 °F 29.19 in West 16.0 mph 24.0 mph 86 % 0.00 in 9 W/m2
16:14 43.3 °F 39.1 °F 29.19 in West 16.0 mph 28.0 mph 85 % 0.00 in 5 W/m2
16:37 43.2 °F 39.0 °F 29.20 in WNW 15.0 mph 23.0 mph 85 % 0.00 in 0 W/m2
16:44 43.0 °F 38.8 °F 29.20 in WNW 13.0 mph 21.0 mph 85 % 0.00 in 0 W/m2
16:56 43.0 °F 38.8 °F 29.21 in WNW 12.0 mph 27.0 mph 85 % 0.00 in 0 W/m2
17:01 43.2 °F 39.0 °F 29.21 in West 13.0 mph 22.0 mph 85 % 0.00 in 0 W/m2
17:31 42.6 °F 39.0 °F 29.21 in West 11.0 mph 16.0 mph 87 % 0.00 in 0 W/m2
17:42 42.3 °F 38.4 °F 29.20 in West 12.0 mph 21.0 mph 86 % 0.00 in 0 W/m2
18:00 41.9 °F 38.0 °F 29.20 in West 12.0 mph 18.0 mph 86 % 0.00 in 0 W/m2
18:14 41.9 °F 38.3 °F 29.20 in West 9.0 mph 15.0 mph 87 % 0.00 in 0 W/m2
18:23 42.1 °F 38.5 °F 29.20 in West 9.0 mph 12.0 mph 87 % 0.00 in 0 W/m2
18:43 41.5 °F 37.7 °F 29.20 in West 10.0 mph 16.0 mph 86 % 0.00 in 0 W/m2
18:48 41.5 °F 37.7 °F 29.20 in West 9.0 mph 15.0 mph 86 % 0.00 in 0 W/m2
18:53 41.5 °F 37.7 °F 29.20 in West 12.0 mph 21.0 mph 86 % 0.00 in 0 W/m2
19:02 41.7 °F 37.8 °F 29.20 in West 10.0 mph 14.0 mph 86 % 0.00 in 0 W/m2
19:10 41.7 °F 37.8 °F 29.20 in West 18.0 mph 27.0 mph 86 % 0.00 in 0 W/m2
19:18 41.5 °F 38.0 °F 29.20 in West 14.0 mph 26.0 mph 87 % 0.00 in 0 W/m2
19:23 41.4 °F 37.8 °F 29.20 in West 13.0 mph 20.0 mph 87 % 0.00 in 0 W/m2
19:29 41.2 °F 37.6 °F 29.20 in West 13.0 mph 21.0 mph 87 % 0.00 in 0 W/m2
19:49 40.6 °F 36.8 °F 29.20 in West 10.0 mph 15.0 mph 86 % 0.00 in 0 W/m2
19:57 40.5 °F 36.6 °F 29.20 in West 9.0 mph 14.0 mph 86 % 0.00 in 0 W/m2
20:04 40.3 °F 36.4 °F 29.20 in West 11.0 mph 18.0 mph 86 % 0.00 in 0 W/m2
20:14 40.3 °F 36.7 °F 29.19 in West 12.0 mph 21.0 mph 87 % 0.00 in 0 W/m2
20:25 40.3 °F 37.0 °F 29.18 in West 12.0 mph 19.0 mph 88 % 0.00 in 0 W/m2
20:37 40.3 °F 37.0 °F 29.18 in WSW 11.0 mph 15.0 mph 88 % 0.00 in 0 W/m2
20:46 40.5 °F 37.2 °F 29.18 in West 14.0 mph 25.0 mph 88 % 0.00 in 0 W/m2
20:47 40.5 °F 37.2 °F 29.18 in West 14.0 mph 25.0 mph 88 % 0.00 in 0 W/m2
20:48 40.5 °F 37.2 °F 29.19 in WSW 13.0 mph 19.0 mph 88 % 0.00 in 0 W/m2
20:49 40.5 °F 37.2 °F 29.19 in WSW 12.0 mph 19.0 mph 88 % 0.00 in 0 W/m2
20:50 40.5 °F 36.9 °F 29.19 in WSW 12.0 mph 19.0 mph 87 % 0.00 in 0 W/m2
20:51 40.5 °F 36.9 °F 29.19 in West 12.0 mph 22.0 mph 87 % 0.00 in 0 W/m2
20:52 40.5 °F 36.9 °F 29.19 in West 13.0 mph 22.0 mph 87 % 0.00 in 0 W/m2
20:56 40.5 °F 36.9 °F 29.19 in WSW 11.0 mph 19.0 mph 87 % 0.00 in 0 W/m2
21:02 40.1 °F 36.8 °F 29.18 in WSW 11.0 mph 19.0 mph 88 % 0.00 in 0 W/m2
21:06 39.9 °F 36.7 °F 29.18 in WSW 11.0 mph 16.0 mph 88 % 0.00 in 0 W/m2
21:07 39.7 °F 36.5 °F 29.18 in WSW 10.0 mph 14.0 mph 88 % 0.00 in 0 W/m2
21:16 39.7 °F 36.8 °F 29.18 in West 10.0 mph 20.0 mph 89 % 0.00 in 0 W/m2
21:23 39.9 °F 37.2 °F 29.18 in WSW 11.0 mph 18.0 mph 90 % 0.00 in 0 W/m2
21:29 39.9 °F 37.2 °F 29.18 in WSW 8.0 mph 13.0 mph 90 % 0.00 in 0 W/m2
21:37 40.3 °F 37.6 °F 29.18 in West 13.0 mph 21.0 mph 90 % 0.00 in 0 W/m2
21:48 40.5 °F 37.5 °F 29.19 in West 14.0 mph 21.0 mph 89 % 0.00 in 0 W/m2
21:56 40.5 °F 37.5 °F 29.18 in West 10.0 mph 16.0 mph 89 % 0.00 in 0 W/m2
22:01 40.5 °F 37.5 °F 29.18 in WSW 9.0 mph 14.0 mph 89 % 0.00 in 0 W/m2
22:12 40.6 °F 37.7 °F 29.18 in West 10.0 mph 15.0 mph 89 % 0.00 in 0 W/m2
22:32 39.7 °F 37.0 °F 29.18 in West 7.0 mph 10.0 mph 90 % 0.00 in 0 W/m2
22:38 39.6 °F 37.2 °F 29.19 in West 9.0 mph 13.0 mph 91 % 0.00 in 0 W/m2
22:44 39.6 °F 37.2 °F 29.20 in WNW 15.0 mph 28.0 mph 91 % 0.02 in 0 W/m2
22:50 38.7 °F 36.3 °F 29.20 in West 16.0 mph 24.0 mph 91 % 0.04 in 0 W/m2
23:05 37.9 °F 35.8 °F 29.18 in WNW 9.0 mph 14.0 mph 92 % 0.05 in 0 W/m2
23:29 37.9 °F 36.1 °F 29.17 in WSW 10.0 mph 18.0 mph 93 % 0.06 in 0 W/m2
23:41 39.0 °F 36.9 °F 29.17 in West 13.0 mph 23.0 mph 92 % 0.05 in 0 W/m2
23:54 39.6 °F 37.2 °F 29.18 in West 15.0 mph 22.0 mph 91 % 0.01 in 0 W/m2
Delerius-Weather
Compliments of Weather Underground - 1.5 mb

Data updates at regular intervals.